Edwards Air Force Base Edwards US
ICAO: KEDW
IATA: EDW
Category: Large
Scheduled Services: No

Elevation: 2312 ft
TransAlt. 18000 ft.

Airport Communications:
SPORT APP/DEP:132.75
ATIS:26.99
GND:121.8
NASA FLT OPS:135.825
PMSV METRO:34.24
COMD POST:30.4
PTD:37.22
TWR:120.7

KEDW Zoom In..

If Map Doesn't Load, Click Here

Runways:

(A) RW 04L length 12000 ft width 200 ft
---- / hdg 43

(B) RW 04R length 15024 ft width 300 ft
---- / hdg 43

(C) RW 22L length 15024 ft width 300 ft
ILS 110.10 / hdg 223

(D) RW 22R length 12000 ft width 200 ft
---- / hdg 223

Location; KEDW
Day. 23 / Time. 19.58 Zulu
* Altimeter: 29.87
* Temperature: 34° c. 93.2°f.
* Wind from: 190° Speed 11 kn.
Dewpoint: 04° c.
Visibility: 90 Statute Miles.
Clouds: Clear (automated report).

KEDW 231958Z 19011KT 90SM CLR 34/04 A2987 RMK AO2A SLP088 T03350042


Wind From 190°
Speed 11 kn.

 
 
jpsmedia.com for Web Design worldairports.se 2018   terms of use